Main page
METAR-TAF:

METAR-TAF

Airports :

Chios Island National Airport

Chios, Greece

latitude: 38-20N, longitude: 026-08E, elevation: 5 m

Current weather observation

The report was made 55 minutes ago, at 02:50 UTC
Wind 3 kt from the North
Temperature 19°C
Humidity 83%
Pressure 1017 hPa
Visibility 10 km or more
no clouds below 1500 m and no cumulonimbus

METAR: LGHI 160250Z 35003KT CAVOK 19/16 Q1017

Time: 06:45 (03:45 UTC)

Forecast

The report was made 1 hour and 45 minutes ago, at 02:00 UTC
Forecast valid from 16 at 03 UTC to 16 at 12 UTC
Wind 8 kt from the North
Visibility 10 km or more
Few clouds at a height of 2000 ft

TAF: LGHI 160200Z 1603/1612 01008KT 9999 FEW020

Weather observations and forecasts of more than 4000 airports (METAR and TAF reports).

The available stations are represented by yellow and red dots on the map.

Hover mouse over dot to see the name of the station.

Then click to see weather observations and forecasts.

To change the map : click on the green buttons with a black cross to zoom in, on the green button with a dash to zoom out, or on the green arrows for adjacent maps.


METAR-TAF: